createdAt,value
2023-04-25T00:00:20.829Z,39.21
2023-04-25T00:01:24.399Z,39.09
2023-04-25T00:02:27.095Z,42.04
2023-04-25T00:03:29.900Z,38.95
2023-04-25T00:04:32.874Z,32.80
2023-04-25T00:05:35.697Z,39.78
2023-04-25T00:06:38.714Z,33.69
2023-04-25T00:07:41.347Z,32.04
2023-04-25T00:08:43.895Z,33.83
2023-04-25T00:09:46.443Z,33.41
2023-04-25T00:10:49.299Z,36.76
2023-04-25T00:11:51.858Z,31.33
2023-04-25T00:12:54.420Z,31.75
2023-04-25T00:13:56.991Z,32.61
2023-04-25T00:14:59.555Z,34.02
2023-04-25T00:16:02.171Z,33.21
2023-04-25T00:17:05.070Z,28.32
2023-04-25T00:18:07.702Z,34.47
2023-04-25T00:19:10.397Z,30.71
2023-04-25T00:20:13.369Z,26.76
2023-04-25T00:21:15.917Z,30.17
2023-04-25T00:22:18.418Z,26.61
2023-04-25T00:23:21.010Z,27.05
2023-04-25T00:24:23.579Z,25.08
2023-04-25T00:25:26.127Z,23.71
2023-04-25T00:26:29.080Z,23.71
2023-04-25T00:27:31.746Z,19.80
2023-04-25T00:28:34.326Z,24.69
2023-04-25T00:29:36.868Z,21.79
2023-04-25T00:30:40.030Z,17.98
2023-04-25T00:31:42.682Z,18.13
2023-04-25T00:32:45.389Z,22.26
2023-04-25T00:33:48.006Z,16.87
2023-04-25T00:34:50.925Z,14.26
2023-04-25T00:35:53.431Z,15.83
2023-04-25T00:36:55.981Z,12.63
2023-04-25T00:37:58.549Z,17.27
2023-04-25T00:39:01.126Z,13.78
2023-04-25T00:40:03.768Z,14.34
2023-04-25T00:41:06.318Z,14.85
2023-04-25T00:42:09.031Z,20.97
2023-04-25T00:43:11.786Z,19.69
2023-04-25T00:44:14.343Z,15.70
2023-04-25T00:45:16.909Z,15.87
2023-04-25T00:46:21.015Z,14.34
2023-04-25T00:47:23.760Z,13.97
2023-04-25T00:48:26.654Z,21.39
2023-04-25T00:49:29.221Z,16.01
2023-04-25T00:50:31.987Z,14.89
2023-04-25T00:51:34.542Z,11.81
2023-04-25T00:52:37.096Z,18.36
2023-04-25T00:53:39.671Z,14.93
2023-04-25T00:54:42.226Z,14.16
2023-04-25T00:55:44.780Z,14.53
2023-04-25T00:56:47.266Z,13.01
2023-04-25T00:57:49.797Z,14.63
2023-04-25T00:58:52.348Z,17.32
2023-04-25T00:59:55.169Z,19.76
2023-04-25T01:00:58.084Z,20.63
2023-04-25T01:02:00.713Z,20.57
2023-04-25T01:03:03.718Z,16.28
2023-04-25T01:04:06.616Z,16.14
2023-04-25T01:05:09.303Z,19.07
2023-04-25T01:06:12.255Z,15.21
2023-04-25T01:07:14.716Z,15.27
2023-04-25T01:08:17.711Z,14.91
2023-04-25T01:09:20.267Z,13.76
2023-04-25T01:10:23.027Z,13.34
2023-04-25T01:11:25.592Z,14.05
2023-04-25T01:12:28.130Z,13.39
2023-04-25T01:13:30.682Z,14.95
2023-04-25T01:14:33.235Z,15.01
2023-04-25T01:15:35.778Z,17.89
2023-04-25T01:16:38.689Z,14.04
2023-04-25T01:17:41.472Z,12.14
2023-04-25T01:18:43.982Z,12.40
2023-04-25T01:19:46.551Z,12.22
2023-04-25T01:20:49.425Z,19.91
2023-04-25T01:21:51.980Z,12.70
2023-04-25T01:22:54.535Z,15.23
2023-04-25T01:23:57.080Z,12.62
2023-04-25T01:24:59.630Z,13.77
2023-04-25T01:26:02.191Z,16.97
2023-04-25T01:27:04.745Z,20.41
2023-04-25T01:28:07.302Z,14.27
2023-04-25T01:29:09.853Z,20.47
2023-04-25T01:30:13.123Z,22.60
2023-04-25T01:31:15.675Z,22.43
2023-04-25T01:32:18.317Z,20.63
2023-04-25T01:33:21.076Z,26.49
2023-04-25T01:34:23.644Z,33.80
2023-04-25T01:35:26.244Z,20.74
2023-04-25T01:36:29.052Z,20.97
2023-04-25T01:37:31.605Z,22.21
2023-04-25T01:38:34.199Z,20.99
2023-04-25T01:39:36.676Z,21.35
2023-04-25T01:40:39.426Z,21.12
2023-04-25T01:41:41.878Z,19.13
2023-04-25T01:42:44.532Z,19.30
2023-04-25T01:43:47.105Z,19.94
2023-04-25T01:44:49.556Z,19.71
2023-04-25T01:45:52.134Z,14.69
2023-04-25T01:46:54.664Z,21.42
2023-04-25T01:47:57.259Z,18.33
2023-04-25T01:48:59.794Z,18.89
2023-04-25T01:50:02.582Z,18.59
2023-04-25T01:51:05.034Z,21.95
2023-04-25T01:52:07.577Z,19.15
2023-04-25T01:53:10.034Z,28.04
2023-04-25T01:54:12.590Z,20.67
2023-04-25T01:55:15.141Z,21.51
2023-04-25T01:56:18.311Z,18.32
2023-04-25T01:57:21.260Z,17.93
2023-04-25T01:58:23.837Z,17.41
2023-04-25T01:59:26.362Z,15.99
2023-04-25T02:00:28.913Z,11.57
2023-04-25T02:01:31.544Z,13.12
2023-04-25T02:02:34.492Z,10.43
2023-04-25T02:03:37.380Z,17.87
2023-04-25T02:04:40.381Z,11.47
2023-04-25T02:05:43.035Z,11.71
2023-04-25T02:06:45.845Z,12.54
2023-04-25T02:07:48.404Z,10.05
2023-04-25T02:08:51.055Z,12.13
2023-04-25T02:09:54.229Z,11.82
2023-04-25T02:10:57.192Z,18.07
2023-04-25T02:11:59.638Z,12.01
2023-04-25T02:13:02.189Z,14.26
2023-04-25T02:14:04.751Z,23.00
2023-04-25T02:15:07.300Z,13.74
2023-04-25T02:16:10.357Z,12.73
2023-04-25T02:17:13.289Z,11.97
2023-04-25T02:18:15.896Z,12.77
2023-04-25T02:19:18.449Z,13.88
2023-04-25T02:20:21.230Z,11.89
2023-04-25T02:21:23.771Z,13.85
2023-04-25T02:22:26.311Z,21.57
2023-04-25T02:23:28.773Z,17.46
2023-04-25T02:24:31.317Z,15.81
2023-04-25T02:25:33.787Z,12.29
2023-04-25T02:26:36.629Z,10.32
2023-04-25T02:27:39.080Z,7.93
2023-04-25T02:28:41.638Z,9.78
2023-04-25T02:29:44.173Z,9.05
2023-04-25T02:30:46.956Z,11.85
2023-04-25T02:31:49.582Z,13.05
2023-04-25T02:32:52.403Z,12.81
2023-04-25T02:33:55.020Z,11.86
2023-04-25T02:34:57.591Z,10.40
2023-04-25T02:36:00.214Z,17.40
2023-04-25T02:37:03.032Z,10.80
2023-04-25T02:38:05.587Z,9.96
2023-04-25T02:39:08.116Z,12.77
2023-04-25T02:40:11.289Z,9.66
2023-04-25T02:41:13.853Z,9.03
2023-04-25T02:42:16.385Z,9.79
2023-04-25T02:43:19.007Z,12.67
2023-04-25T02:44:21.469Z,11.63
2023-04-25T02:45:24.012Z,15.55
2023-04-25T02:46:38.398Z,14.90
2023-04-25T02:47:31.152Z,13.68
2023-04-25T02:48:33.923Z,19.31
2023-04-25T02:49:36.482Z,22.51
2023-04-25T02:50:39.228Z,22.01
2023-04-25T02:51:41.774Z,26.17
2023-04-25T02:52:44.375Z,28.37
2023-04-25T02:53:46.924Z,26.45
2023-04-25T02:54:49.514Z,26.23
2023-04-25T02:55:51.964Z,26.13
2023-04-25T02:56:54.936Z,24.98
2023-04-25T02:57:57.475Z,25.97
2023-04-25T02:59:00.045Z,21.37
2023-04-25T03:00:02.942Z,16.90
2023-04-25T03:01:05.551Z,19.57
2023-04-25T03:02:08.277Z,18.87
2023-04-25T03:03:10.967Z,14.39
2023-04-25T03:04:13.626Z,12.58
2023-04-25T03:05:16.148Z,18.93
2023-04-25T03:06:18.989Z,16.96
2023-04-25T03:07:21.536Z,14.77
2023-04-25T03:08:24.009Z,13.01
2023-04-25T03:09:26.715Z,12.17
2023-04-25T03:10:29.263Z,14.73
2023-04-25T03:11:31.913Z,15.51
2023-04-25T03:12:34.678Z,14.68
2023-04-25T03:13:37.560Z,13.47
2023-04-25T03:14:40.096Z,12.54
2023-04-25T03:15:42.651Z,12.23
2023-04-25T03:16:45.355Z,12.64
2023-04-25T03:17:48.105Z,12.58
2023-04-25T03:18:50.646Z,12.49
2023-04-25T03:19:53.218Z,18.03
2023-04-25T03:20:56.066Z,18.59
2023-04-25T03:21:59.027Z,19.01
2023-04-25T03:23:01.486Z,15.79
2023-04-25T03:24:03.955Z,14.07
2023-04-25T03:25:06.506Z,13.92
2023-04-25T03:26:09.679Z,21.39
2023-04-25T03:27:12.244Z,20.95
2023-04-25T03:28:14.998Z,22.90
2023-04-25T03:29:17.568Z,19.63
2023-04-25T03:30:20.325Z,22.38
2023-04-25T03:31:22.982Z,23.72
2023-04-25T03:32:25.743Z,29.97
2023-04-25T03:33:28.349Z,35.59
2023-04-25T03:34:31.268Z,37.09
2023-04-25T03:35:34.032Z,37.57
2023-04-25T03:36:36.688Z,31.59
2023-04-25T03:37:39.254Z,36.45
2023-04-25T03:38:41.912Z,33.21
2023-04-25T03:39:44.480Z,28.21
2023-04-25T03:40:47.327Z,23.37
2023-04-25T03:41:50.103Z,26.39
2023-04-25T03:42:52.679Z,24.87
2023-04-25T03:43:55.111Z,21.17
2023-04-25T03:44:57.702Z,25.17
2023-04-25T03:46:00.297Z,22.01
2023-04-25T03:47:03.124Z,17.61
2023-04-25T03:48:06.184Z,14.95
2023-04-25T03:49:09.032Z,17.31
2023-04-25T03:50:12.314Z,14.67
2023-04-25T03:51:14.888Z,17.80
2023-04-25T03:52:17.431Z,12.12
2023-04-25T03:53:19.988Z,12.98
2023-04-25T03:54:22.565Z,14.55
2023-04-25T03:55:25.142Z,12.98
2023-04-25T03:56:27.698Z,11.95
2023-04-25T03:57:30.259Z,14.29
2023-04-25T03:58:32.839Z,9.03
2023-04-25T03:59:35.427Z,13.58
2023-04-25T04:00:38.370Z,12.73
2023-04-25T04:01:40.954Z,12.90
2023-04-25T04:02:45.328Z,15.07
2023-04-25T04:03:48.091Z,12.25
2023-04-25T04:04:51.448Z,11.67
2023-04-25T04:05:54.376Z,10.26
2023-04-25T04:06:57.584Z,8.49
2023-04-25T04:08:00.142Z,7.54
2023-04-25T04:09:02.700Z,9.21
2023-04-25T04:10:05.473Z,11.19
2023-04-25T04:11:08.136Z,15.11
2023-04-25T04:12:10.749Z,8.16
2023-04-25T04:13:14.015Z,10.77
2023-04-25T04:14:16.547Z,10.10
2023-04-25T04:15:19.131Z,10.65
2023-04-25T04:16:22.161Z,13.66
2023-04-25T04:17:24.821Z,13.01
2023-04-25T04:18:27.428Z,12.39
2023-04-25T04:19:29.985Z,11.71
2023-04-25T04:20:32.738Z,10.72
2023-04-25T04:21:35.293Z,8.98
2023-04-25T04:22:37.899Z,9.70
2023-04-25T04:23:40.422Z,9.59
2023-04-25T04:24:42.975Z,10.65
2023-04-25T04:25:45.547Z,9.85
2023-04-25T04:26:48.238Z,10.57
2023-04-25T04:27:50.781Z,13.51
2023-04-25T04:28:53.354Z,10.17
2023-04-25T04:29:55.893Z,11.33
2023-04-25T04:30:58.929Z,9.88
2023-04-25T04:32:01.512Z,10.17
2023-04-25T04:33:04.148Z,8.62
2023-04-25T04:34:06.847Z,12.45
2023-04-25T04:35:09.403Z,11.76
2023-04-25T04:36:12.625Z,9.63
2023-04-25T04:37:15.191Z,8.49
2023-04-25T04:38:17.748Z,8.46
2023-04-25T04:39:20.311Z,9.25
2023-04-25T04:40:23.165Z,12.18
2023-04-25T04:41:25.725Z,13.56
2023-04-25T04:42:28.286Z,10.25
2023-04-25T04:43:30.863Z,12.17
2023-04-25T04:44:33.474Z,12.23
2023-04-25T04:45:36.073Z,13.79
2023-04-25T04:46:39.106Z,14.56
2023-04-25T04:47:41.912Z,11.51
2023-04-25T04:48:44.443Z,16.93
2023-04-25T04:49:46.997Z,16.87
2023-04-25T04:50:49.854Z,17.10
2023-04-25T04:51:52.415Z,10.37
2023-04-25T04:52:54.978Z,11.89
2023-04-25T04:53:57.547Z,9.95
2023-04-25T04:55:00.098Z,10.25
2023-04-25T04:56:02.698Z,8.92
2023-04-25T04:57:05.262Z,14.83
2023-04-25T04:58:07.843Z,9.88
2023-04-25T04:59:10.405Z,8.62
2023-04-25T05:00:13.316Z,9.41
2023-04-25T05:01:16.235Z,11.61
2023-04-25T05:02:18.956Z,8.01
2023-04-25T05:03:21.776Z,8.03
2023-04-25T05:04:24.603Z,11.94
2023-04-25T05:05:27.217Z,9.37
2023-04-25T05:06:29.874Z,9.83
2023-04-25T05:07:32.420Z,9.09
2023-04-25T05:08:34.968Z,7.99
2023-04-25T05:09:37.558Z,8.50
2023-04-25T05:10:40.616Z,10.99
2023-04-25T05:11:43.183Z,7.91
2023-04-25T05:12:45.756Z,9.79
2023-04-25T05:13:48.811Z,7.76
2023-04-25T05:14:51.635Z,10.35
2023-04-25T05:15:54.169Z,9.07
2023-04-25T05:16:57.336Z,8.73
2023-04-25T05:18:00.744Z,13.89
2023-04-25T05:19:03.397Z,14.49
2023-04-25T05:20:06.475Z,16.90
2023-04-25T05:21:09.039Z,18.43
2023-04-25T05:22:11.581Z,18.93
2023-04-25T05:23:14.142Z,20.96
2023-04-25T05:24:16.713Z,15.25
2023-04-25T05:25:19.275Z,18.61
2023-04-25T05:26:22.120Z,18.04
2023-04-25T05:27:24.708Z,15.90
2023-04-25T05:28:27.270Z,11.37
2023-04-25T05:29:29.829Z,12.47
2023-04-25T05:30:32.582Z,14.69
2023-04-25T05:31:35.228Z,19.17
2023-04-25T05:32:38.008Z,12.76
2023-04-25T05:33:40.791Z,10.10
2023-04-25T05:34:43.284Z,11.85
2023-04-25T05:35:45.864Z,13.64
2023-04-25T05:36:48.524Z,15.85
2023-04-25T05:37:51.076Z,14.00
2023-04-25T05:38:53.688Z,13.20
2023-04-25T05:39:56.231Z,15.39
2023-04-25T05:40:58.894Z,17.18
2023-04-25T05:42:01.514Z,17.13
2023-04-25T05:43:04.031Z,18.53
2023-04-25T05:44:06.577Z,14.83
2023-04-25T05:45:09.143Z,17.73
2023-04-25T05:46:12.353Z,18.18
2023-04-25T05:47:14.956Z,20.87
2023-04-25T05:48:17.563Z,21.53
2023-04-25T05:49:20.115Z,23.25
2023-04-25T05:50:22.931Z,24.69
2023-04-25T05:51:25.529Z,20.83
2023-04-25T05:52:28.072Z,24.68
2023-04-25T05:53:30.637Z,31.69
2023-04-25T05:54:33.178Z,23.80
2023-04-25T05:55:35.743Z,25.23
2023-04-25T05:56:38.299Z,26.27
2023-04-25T05:57:40.868Z,24.05
2023-04-25T05:58:43.624Z,29.78
2023-04-25T05:59:46.201Z,27.84
2023-04-25T06:00:48.956Z,26.61
2023-04-25T06:01:51.504Z,25.06
2023-04-25T06:02:54.127Z,20.52
2023-04-25T06:03:57.688Z,21.62
2023-04-25T06:05:00.788Z,16.64
2023-04-25T06:06:03.695Z,13.43
2023-04-25T06:07:06.212Z,15.93
2023-04-25T06:08:08.704Z,17.52
2023-04-25T06:09:13.281Z,10.84
2023-04-25T06:10:15.826Z,11.59
2023-04-25T06:11:18.377Z,11.58
2023-04-25T06:12:20.938Z,14.27
2023-04-25T06:13:23.560Z,10.12
2023-04-25T06:14:28.269Z,10.64
2023-04-25T06:15:30.443Z,11.72
2023-04-25T06:16:33.233Z,12.82
2023-04-25T06:17:36.061Z,11.38
2023-04-25T06:18:38.630Z,11.50
2023-04-25T06:19:41.189Z,9.71
2023-04-25T06:20:43.730Z,10.85
2023-04-25T06:21:46.283Z,9.28
2023-04-25T06:22:48.738Z,12.13
2023-04-25T06:23:51.727Z,11.16
2023-04-25T06:24:54.787Z,8.72
2023-04-25T06:25:57.365Z,7.56
2023-04-25T06:27:00.001Z,7.61
2023-04-25T06:28:02.554Z,7.98
2023-04-25T06:29:05.047Z,8.81
2023-04-25T06:30:08.063Z,8.23
2023-04-25T06:31:10.645Z,10.35
2023-04-25T06:32:13.170Z,9.30
2023-04-25T06:33:15.787Z,6.46
2023-04-25T06:34:18.387Z,6.36
2023-04-25T06:35:20.939Z,5.74
2023-04-25T06:36:23.790Z,7.71
2023-04-25T06:37:26.339Z,7.50
2023-04-25T06:38:28.904Z,6.91
2023-04-25T06:39:31.480Z,5.79
2023-04-25T06:40:34.135Z,8.74
2023-04-25T06:41:36.703Z,5.19
2023-04-25T06:42:39.245Z,6.55
2023-04-25T06:43:41.797Z,6.16
2023-04-25T06:44:44.365Z,6.21
2023-04-25T06:45:48.529Z,8.99
2023-04-25T06:46:51.800Z,5.77
2023-04-25T06:47:54.799Z,7.30
2023-04-25T06:48:57.616Z,7.45
2023-04-25T06:50:00.084Z,8.53
2023-04-25T06:51:02.649Z,6.33
2023-04-25T06:52:05.218Z,8.19
2023-04-25T06:53:07.756Z,5.97
2023-04-25T06:54:10.322Z,10.01
2023-04-25T06:55:12.890Z,6.77
2023-04-25T06:56:16.036Z,10.59
2023-04-25T06:57:18.588Z,14.69
2023-04-25T06:58:21.130Z,6.57
2023-04-25T06:59:23.683Z,7.06
2023-04-25T07:00:26.333Z,7.04
2023-04-25T07:01:28.935Z,6.71
2023-04-25T07:02:31.856Z,5.14
2023-04-25T07:03:34.894Z,3.84
2023-04-25T07:04:38.189Z,4.71
2023-04-25T07:05:40.943Z,4.70
2023-04-25T07:06:43.899Z,5.94
2023-04-25T07:07:46.554Z,6.50
2023-04-25T07:08:49.632Z,5.09
2023-04-25T07:09:52.289Z,4.80
2023-04-25T07:10:55.241Z,3.82
2023-04-25T07:11:57.803Z,4.21
2023-04-25T07:13:00.355Z,3.97
2023-04-25T07:14:03.332Z,4.97
2023-04-25T07:15:05.879Z,3.98
2023-04-25T07:16:09.186Z,4.86
2023-04-25T07:17:11.913Z,4.21
2023-04-25T07:18:14.565Z,7.55
2023-04-25T07:19:17.147Z,3.97
2023-04-25T07:20:20.231Z,3.23
2023-04-25T07:21:22.795Z,3.77
2023-04-25T07:22:25.336Z,3.55
2023-04-25T07:23:27.893Z,2.35
2023-04-25T07:24:30.447Z,2.38
2023-04-25T07:25:33.063Z,3.83
2023-04-25T07:26:36.056Z,2.42
2023-04-25T07:27:38.665Z,3.19
2023-04-25T07:28:41.223Z,4.07
2023-04-25T07:29:43.812Z,2.67
2023-04-25T07:30:46.549Z,2.02
2023-04-25T07:31:49.202Z,4.25
2023-04-25T07:32:51.876Z,2.06
2023-04-25T07:33:54.411Z,2.67
2023-04-25T07:34:56.860Z,2.99
2023-04-25T07:35:59.409Z,3.48
2023-04-25T07:37:02.269Z,2.82
2023-04-25T07:38:04.827Z,2.89
2023-04-25T07:39:07.390Z,2.39
2023-04-25T07:40:10.848Z,4.55
2023-04-25T07:41:13.413Z,3.75
2023-04-25T07:42:15.970Z,2.46
2023-04-25T07:43:18.805Z,2.69
2023-04-25T07:44:21.351Z,2.42
2023-04-25T07:45:23.915Z,2.88
2023-04-25T07:46:26.706Z,6.11
2023-04-25T07:47:29.381Z,2.24
2023-04-25T07:48:31.902Z,2.10
2023-04-25T07:49:34.508Z,1.61
2023-04-25T07:50:37.265Z,2.26
2023-04-25T07:51:39.831Z,4.15
2023-04-25T07:52:42.365Z,2.49
2023-04-25T07:53:44.972Z,2.33
2023-04-25T07:54:47.529Z,2.97
2023-04-25T07:55:50.098Z,3.93
2023-04-25T07:56:53.767Z,2.18
2023-04-25T07:57:56.615Z,1.60
2023-04-25T07:58:59.183Z,8.03
2023-04-25T08:00:01.750Z,1.98
2023-04-25T08:01:04.607Z,2.23
2023-04-25T08:02:07.156Z,3.49
2023-04-25T08:03:10.130Z,1.59
2023-04-25T08:04:13.075Z,2.76
2023-04-25T08:05:17.241Z,1.81
2023-04-25T08:06:21.249Z,1.27
2023-04-25T08:07:24.304Z,2.49
2023-04-25T08:08:26.862Z,2.13
2023-04-25T08:09:29.320Z,1.93
2023-04-25T08:10:31.976Z,1.77
2023-04-25T08:11:34.584Z,1.17
2023-04-25T08:12:37.103Z,2.09
2023-04-25T08:13:39.654Z,6.35
2023-04-25T08:14:42.234Z,1.55
2023-04-25T08:15:44.939Z,1.53
2023-04-25T08:16:47.636Z,2.07
2023-04-25T08:17:50.227Z,2.69
2023-04-25T08:18:53.525Z,5.07
2023-04-25T08:19:56.347Z,2.45
2023-04-25T08:20:59.007Z,1.63
2023-04-25T08:22:01.557Z,2.92
2023-04-25T08:23:04.124Z,4.36
2023-04-25T08:24:06.714Z,1.71
2023-04-25T08:25:09.268Z,3.92
2023-04-25T08:26:13.561Z,3.61
2023-04-25T08:27:16.115Z,2.42
2023-04-25T08:28:18.684Z,3.46
2023-04-25T08:29:21.246Z,2.55
2023-04-25T08:30:23.918Z,3.29
2023-04-25T08:31:26.491Z,2.35
2023-04-25T08:32:30.809Z,1.73
2023-04-25T08:33:33.460Z,1.36
2023-04-25T08:34:36.068Z,1.57
2023-04-25T08:35:38.725Z,1.53
2023-04-25T08:36:41.470Z,2.69
2023-04-25T08:37:44.029Z,2.52
2023-04-25T08:38:46.708Z,2.47
2023-04-25T08:39:49.294Z,1.79
2023-04-25T08:40:52.119Z,1.15
2023-04-25T08:41:54.695Z,2.09
2023-04-25T08:42:57.226Z,1.34
2023-04-25T08:43:59.687Z,1.36
2023-04-25T08:45:06.701Z,1.63
2023-04-25T08:46:07.402Z,1.31
2023-04-25T08:47:10.073Z,0.61
2023-04-25T08:48:13.094Z,1.39
2023-04-25T08:49:16.017Z,1.60
2023-04-25T08:50:18.976Z,1.39
2023-04-25T08:51:22.949Z,0.71
2023-04-25T08:52:28.417Z,1.94
2023-04-25T08:53:31.184Z,1.97
2023-04-25T08:54:36.508Z,0.71
2023-04-25T08:55:38.640Z,1.27
2023-04-25T08:56:41.402Z,2.82
2023-04-25T08:57:44.061Z,1.81
2023-04-25T08:58:46.598Z,1.07
2023-04-25T08:59:49.165Z,1.20
2023-04-25T09:00:51.932Z,2.35
2023-04-25T09:01:54.450Z,0.55
2023-04-25T09:02:57.193Z,0.71
2023-04-25T09:03:59.895Z,1.52
2023-04-25T09:05:02.578Z,1.35
2023-04-25T09:06:05.447Z,6.64
2023-04-25T09:07:08.121Z,1.01
2023-04-25T09:08:10.673Z,0.79
2023-04-25T09:09:13.252Z,0.90
2023-04-25T09:10:16.857Z,2.62
2023-04-25T09:11:20.525Z,0.93
2023-04-25T09:12:23.917Z,0.92
2023-04-25T09:13:26.469Z,2.06
2023-04-25T09:14:29.349Z,0.95
2023-04-25T09:15:31.886Z,0.67
2023-04-25T09:16:37.049Z,2.59
2023-04-25T09:17:39.021Z,1.24
2023-04-25T09:19:45.994Z,1.86
2023-04-25T09:21:00.075Z,0.95
2023-04-25T09:21:53.146Z,2.17
2023-04-25T09:22:55.815Z,3.42
2023-04-25T09:23:58.364Z,0.92
2023-04-25T09:25:00.925Z,1.01
2023-04-25T09:26:03.785Z,1.87
2023-04-25T09:27:06.342Z,1.45
2023-04-25T09:28:08.959Z,0.33
2023-04-25T09:29:11.556Z,0.82
2023-04-25T09:30:14.523Z,1.41
2023-04-25T09:31:17.108Z,1.07
2023-04-25T09:32:19.792Z,1.54
2023-04-25T09:33:22.721Z,0.85
2023-04-25T09:34:25.501Z,0.73
2023-04-25T09:35:28.084Z,0.73
2023-04-25T09:36:30.830Z,0.99
2023-04-25T09:37:33.489Z,2.76
2023-04-25T09:38:36.163Z,1.35
2023-04-25T09:39:38.748Z,1.39
2023-04-25T09:40:41.815Z,1.84
2023-04-25T09:41:44.362Z,1.51
2023-04-25T09:42:46.921Z,1.43
2023-04-25T09:43:49.477Z,2.20
2023-04-25T09:44:52.025Z,1.41
2023-04-25T09:45:55.293Z,2.61
2023-04-25T09:46:59.067Z,1.14
2023-04-25T09:48:01.698Z,1.15
2023-04-25T09:49:04.403Z,0.91
2023-04-25T09:50:07.962Z,1.02
2023-04-25T09:51:10.528Z,1.12
2023-04-25T09:52:13.071Z,1.46
2023-04-25T09:53:15.695Z,2.80
2023-04-25T09:54:18.261Z,1.24
2023-04-25T09:55:21.023Z,2.07
2023-04-25T09:56:23.674Z,1.54
2023-04-25T09:57:26.264Z,1.35
2023-04-25T09:58:30.022Z,2.43
2023-04-25T09:59:33.149Z,1.13
2023-04-25T10:00:36.203Z,2.16
2023-04-25T10:01:38.894Z,2.95
2023-04-25T10:02:41.689Z,2.04
2023-04-25T10:03:44.621Z,1.32
2023-04-25T10:04:47.586Z,1.37
2023-04-25T10:05:50.698Z,2.07
2023-04-25T10:06:53.467Z,2.33
2023-04-25T10:07:56.010Z,1.14
2023-04-25T10:08:58.576Z,0.99
2023-04-25T10:10:01.116Z,2.61
2023-04-25T10:11:03.677Z,3.16
2023-04-25T10:12:06.224Z,3.30
2023-04-25T10:13:08.793Z,3.49
2023-04-25T10:14:11.364Z,1.07
2023-04-25T10:15:13.945Z,1.05
2023-04-25T10:16:17.241Z,1.58
2023-04-25T10:17:19.850Z,2.11
2023-04-25T10:18:22.444Z,3.88
2023-04-25T10:19:24.986Z,1.12
2023-04-25T10:20:27.845Z,1.13
2023-04-25T10:21:30.474Z,1.12
2023-04-25T10:22:33.053Z,3.12
2023-04-25T10:23:35.821Z,2.66
2023-04-25T10:24:38.370Z,1.55
2023-04-25T10:25:40.924Z,0.69
2023-04-25T10:26:43.878Z,6.35
2023-04-25T10:27:46.584Z,2.06
2023-04-25T10:28:49.215Z,0.67
2023-04-25T10:29:51.765Z,7.84
2023-04-25T10:30:54.667Z,0.91
2023-04-25T10:31:57.563Z,1.30
2023-04-25T10:33:00.162Z,0.86
2023-04-25T10:34:02.735Z,2.47
2023-04-25T10:35:05.277Z,3.81
2023-04-25T10:36:08.873Z,2.95
2023-04-25T10:37:11.424Z,0.87
2023-04-25T10:50:02.720Z,0.72
2023-04-25T10:51:05.275Z,0.67
2023-04-25T10:52:07.861Z,2.84
2023-04-25T10:53:10.434Z,1.26
2023-04-25T10:54:13.007Z,0.86
2023-04-25T10:55:15.576Z,2.29
2023-04-25T10:56:18.255Z,3.37
2023-04-25T10:57:20.830Z,3.31
2023-04-25T10:58:23.379Z,6.13
2023-04-25T10:59:25.942Z,1.21
2023-04-25T11:00:34.167Z,2.09
2023-04-25T11:01:33.011Z,1.21
2023-04-25T11:02:35.665Z,3.39
2023-04-25T11:03:38.782Z,1.61
2023-04-25T11:04:41.643Z,0.57
2023-04-25T11:05:57.486Z,2.43
2023-04-25T11:06:49.254Z,1.02
2023-04-25T11:08:03.835Z,1.77
2023-04-25T11:08:57.142Z,1.21
2023-04-25T11:09:59.600Z,0.50
2023-04-25T11:11:02.693Z,0.40
2023-04-25T11:12:05.264Z,1.81
2023-04-25T11:13:07.869Z,1.05
2023-04-25T11:14:10.441Z,0.35
2023-04-25T11:15:12.980Z,1.56
2023-04-25T11:16:26.845Z,1.65
2023-04-25T11:17:20.425Z,0.76
2023-04-25T11:18:23.324Z,0.65
2023-04-25T11:19:26.288Z,0.63
2023-04-25T11:20:29.185Z,2.65
2023-04-25T11:21:32.033Z,1.96
2023-04-25T11:22:34.596Z,3.51
2023-04-25T11:23:37.150Z,1.91
2023-04-25T11:24:39.706Z,1.35
2023-04-25T11:25:42.267Z,1.13
2023-04-25T11:26:45.346Z,0.78
2023-04-25T11:27:47.916Z,1.35
2023-04-25T11:28:50.855Z,2.55
2023-04-25T11:29:53.412Z,0.63
2023-04-25T11:30:56.261Z,0.90
2023-04-25T11:31:58.879Z,2.07
2023-04-25T11:33:01.916Z,1.14
2023-04-25T11:34:04.788Z,1.57
2023-04-25T11:35:07.272Z,2.66
2023-04-25T11:36:10.135Z,1.91
2023-04-25T11:37:12.878Z,0.74
2023-04-25T11:38:15.433Z,1.58
2023-04-25T11:39:18.027Z,2.35
2023-04-25T11:40:21.595Z,2.33
2023-04-25T11:41:24.181Z,0.82
2023-04-25T11:42:27.109Z,2.15
2023-04-25T11:43:29.733Z,1.08
2023-04-25T11:44:32.286Z,0.77
2023-04-25T11:45:34.960Z,1.51
2023-04-25T11:46:38.145Z,1.44
2023-04-25T11:47:40.772Z,2.45
2023-04-25T11:48:43.372Z,2.45
2023-04-25T11:49:45.905Z,1.38
2023-04-25T11:50:48.761Z,0.56
2023-04-25T11:51:51.324Z,1.43
2023-04-25T11:52:53.911Z,2.03
2023-04-25T11:53:56.464Z,1.13
2023-04-25T11:54:59.113Z,1.24
2023-04-25T11:56:01.695Z,4.03
2023-04-25T11:57:04.251Z,2.28
2023-04-25T11:58:06.810Z,1.27
2023-04-25T11:59:09.535Z,0.69
2023-04-25T12:00:14.500Z,2.54
2023-04-25T12:01:17.415Z,3.04
2023-04-25T12:02:20.009Z,2.50
2023-04-25T12:03:23.168Z,0.89
2023-04-25T12:04:26.050Z,1.19
2023-04-25T12:05:32.789Z,1.81
2023-04-25T12:06:33.531Z,1.21
2023-04-25T12:07:36.332Z,3.27
2023-04-25T12:08:38.870Z,2.95
2023-04-25T12:09:41.452Z,1.80
2023-04-25T12:10:44.627Z,3.60
2023-04-25T12:11:47.352Z,1.89
2023-04-25T12:12:50.144Z,26.74
2023-04-25T12:13:52.725Z,9.59
2023-04-25T12:14:55.244Z,1.50
2023-04-25T12:15:58.123Z,12.15
2023-04-25T12:17:01.006Z,3.88
2023-04-25T12:18:03.643Z,4.45
2023-04-25T12:19:06.398Z,0.85
2023-04-25T12:20:09.675Z,0.74
2023-04-25T12:21:12.338Z,0.99
2023-04-25T12:22:14.895Z,2.07
2023-04-25T12:23:17.495Z,2.50
2023-04-25T12:24:20.027Z,2.06
2023-04-25T12:25:22.607Z,0.75
2023-04-25T12:26:25.411Z,2.82
2023-04-25T12:27:27.954Z,2.19
2023-04-25T12:28:30.407Z,22.82
2023-04-25T12:29:41.816Z,17.33
2023-04-25T12:30:40.419Z,10.21
2023-04-25T12:31:43.505Z,11.29
2023-04-25T12:32:46.374Z,2.31
2023-04-25T12:33:49.245Z,9.38
2023-04-25T12:34:51.806Z,1.35
2023-04-25T12:35:54.420Z,2.82
2023-04-25T12:36:57.261Z,1.16
2023-04-25T12:37:59.819Z,1.43
2023-04-25T12:39:02.527Z,4.59
2023-04-25T12:40:05.201Z,1.32
2023-04-25T12:41:07.807Z,1.21
2023-04-25T12:42:10.259Z,2.97
2023-04-25T12:43:12.844Z,2.00
2023-04-25T12:44:15.427Z,3.82
2023-04-25T12:45:17.984Z,1.10
2023-04-25T12:46:20.729Z,1.85
2023-04-25T12:47:23.667Z,4.55
2023-04-25T12:48:26.236Z,4.55
2023-04-25T12:49:28.775Z,2.73
2023-04-25T12:50:31.641Z,4.35
2023-04-25T12:51:34.257Z,4.85
2023-04-25T12:52:36.837Z,3.91
2023-04-25T12:53:39.377Z,1.73
2023-04-25T12:54:41.934Z,2.63
2023-04-25T12:55:44.507Z,1.98
2023-04-25T12:56:47.388Z,1.45
2023-04-25T12:57:49.923Z,1.66
2023-04-25T12:58:52.675Z,1.21
2023-04-25T12:59:55.650Z,2.32
2023-04-25T13:00:58.678Z,3.61
2023-04-25T13:02:01.274Z,6.21
2023-04-25T13:03:04.103Z,9.99
2023-04-25T13:04:07.046Z,3.77
2023-04-25T13:05:09.631Z,0.73
2023-04-25T13:06:12.576Z,0.96
2023-04-25T13:07:15.137Z,0.83
2023-04-25T13:08:17.724Z,3.99
2023-04-25T13:09:20.289Z,3.00
2023-04-25T13:10:22.969Z,1.97
2023-04-25T13:11:25.539Z,1.48
2023-04-25T13:12:28.313Z,1.21
2023-04-25T13:13:30.982Z,1.37
2023-04-25T13:14:33.550Z,2.55
2023-04-25T13:15:36.039Z,1.51
2023-04-25T13:16:39.113Z,2.27
2023-04-25T13:17:42.021Z,2.49
2023-04-25T13:18:44.646Z,2.87
2023-04-25T13:19:47.319Z,4.52
2023-04-25T13:20:50.268Z,1.77
2023-04-25T13:21:53.053Z,2.50
2023-04-25T13:22:55.930Z,1.88
2023-04-25T13:23:58.494Z,4.03
2023-04-25T13:25:01.051Z,2.01
2023-04-25T13:26:03.904Z,1.26
2023-04-25T13:27:06.473Z,3.38
2023-04-25T13:28:08.955Z,1.49
2023-04-25T13:29:11.641Z,0.81
2023-04-25T13:30:14.529Z,0.92
2023-04-25T13:31:17.104Z,3.13
2023-04-25T13:32:19.686Z,3.93
2023-04-25T13:33:22.298Z,0.94
2023-04-25T13:34:24.870Z,2.81
2023-04-25T13:35:27.459Z,2.87
2023-04-25T13:36:30.363Z,3.29
2023-04-25T13:37:32.956Z,0.83
2023-04-25T13:38:35.510Z,1.27
2023-04-25T13:39:38.067Z,1.29
2023-04-25T13:40:40.947Z,1.50
2023-04-25T13:41:43.523Z,1.25
2023-04-25T13:42:46.055Z,0.97
2023-04-25T13:43:49.254Z,1.40
2023-04-25T13:44:52.296Z,3.16
2023-04-25T13:45:54.957Z,2.19
2023-04-25T13:46:57.701Z,0.76
2023-04-25T13:48:00.331Z,1.35
2023-04-25T13:49:11.666Z,3.21
2023-04-25T13:50:08.481Z,2.03
2023-04-25T13:51:11.043Z,1.62
2023-04-25T13:52:13.591Z,2.26
2023-04-25T13:53:16.160Z,2.11
2023-04-25T13:54:18.715Z,1.22
2023-04-25T13:55:21.284Z,1.25
2023-04-25T13:56:24.053Z,0.79